createdAt,value
2019-02-05T00:02:12.008Z,3.20
2019-02-05T00:04:42.304Z,3.18
2019-02-05T00:07:12.519Z,3.05
2019-02-05T00:09:43.703Z,3.12
2019-02-05T00:12:15.108Z,3.29
2019-02-05T00:14:44.195Z,3.04
2019-02-05T00:17:13.315Z,3.33
2019-02-05T00:19:44.104Z,2.93
2019-02-05T00:22:13.564Z,3.30
2019-02-05T00:24:43.200Z,3.20
2019-02-05T00:27:12.486Z,3.40
2019-02-05T00:29:41.597Z,3.41
2019-02-05T00:32:10.699Z,3.10
2019-02-05T00:34:41.206Z,3.52
2019-02-05T00:37:10.602Z,3.66
2019-02-05T00:39:39.988Z,3.46
2019-02-05T00:42:10.063Z,3.47
2019-02-05T00:44:39.141Z,3.43
2019-02-05T00:47:10.384Z,3.23
2019-02-05T00:49:41.583Z,3.30
2019-02-05T00:52:15.543Z,2.82
2019-02-05T00:54:47.926Z,3.02
2019-02-05T00:57:19.981Z,2.98
2019-02-05T00:59:53.664Z,3.15
2019-02-05T01:02:30.281Z,2.77
2019-02-05T01:04:59.389Z,2.78
2019-02-05T01:07:28.491Z,2.79
2019-02-05T01:09:57.600Z,3.11
2019-02-05T01:12:28.352Z,3.01
2019-02-05T01:15:00.491Z,2.94
2019-02-05T01:17:31.225Z,2.54
2019-02-05T01:20:02.737Z,2.57
2019-02-05T01:22:31.860Z,2.54
2019-02-05T01:25:01.053Z,2.43
2019-02-05T01:27:31.188Z,2.68
2019-02-05T01:30:03.547Z,2.52
2019-02-05T01:32:34.573Z,2.64
2019-02-05T01:35:07.034Z,2.82
2019-02-05T01:37:40.267Z,2.79
2019-02-05T01:40:11.542Z,2.79
2019-02-05T01:42:42.648Z,2.68
2019-02-05T01:45:14.316Z,2.73
2019-02-05T01:47:43.466Z,3.25
2019-02-05T01:50:17.539Z,3.42
2019-02-05T01:52:46.676Z,3.39
2019-02-05T01:55:15.772Z,3.22
2019-02-05T01:57:48.599Z,3.25
2019-02-05T02:00:23.064Z,3.36
2019-02-05T02:02:53.711Z,2.78
2019-02-05T02:05:23.427Z,3.37
2019-02-05T02:07:57.180Z,3.13
2019-02-05T02:10:32.552Z,3.03
2019-02-05T02:13:08.715Z,3.16
2019-02-05T02:15:37.900Z,3.16
2019-02-05T02:18:07.124Z,3.32
2019-02-05T02:20:37.623Z,3.26
2019-02-05T02:23:11.194Z,3.72
2019-02-05T02:25:40.594Z,3.62
2019-02-05T02:28:12.539Z,3.77
2019-02-05T02:30:45.091Z,3.71
2019-02-05T02:33:12.533Z,3.72
2019-02-05T02:35:41.685Z,3.61
2019-02-05T02:38:12.274Z,4.29
2019-02-05T02:40:45.702Z,4.25
2019-02-05T02:43:14.845Z,4.08
2019-02-05T02:45:43.946Z,4.25
2019-02-05T02:48:13.781Z,4.05
2019-02-05T02:50:43.051Z,3.61
2019-02-05T02:53:12.143Z,3.46
2019-02-05T02:55:42.513Z,3.64
2019-02-05T02:58:13.623Z,3.56
2019-02-05T03:00:45.330Z,3.86
2019-02-05T03:03:15.280Z,3.63
2019-02-05T03:05:44.415Z,3.52
2019-02-05T03:08:16.528Z,3.14
2019-02-05T03:10:46.015Z,2.82
2019-02-05T03:13:18.733Z,2.60
2019-02-05T03:15:49.023Z,2.68
2019-02-05T03:18:19.310Z,2.77
2019-02-05T03:20:50.259Z,2.64
2019-02-05T03:23:25.732Z,3.08
2019-02-05T03:25:57.868Z,2.99
2019-02-05T03:28:27.137Z,3.15
2019-02-05T03:30:57.364Z,3.91
2019-02-05T03:33:27.642Z,4.12
2019-02-05T03:35:57.875Z,4.14
2019-02-05T03:38:30.078Z,4.25
2019-02-05T03:41:05.671Z,3.64
2019-02-05T03:43:39.833Z,3.56
2019-02-05T03:46:18.618Z,3.44
2019-02-05T03:48:49.481Z,3.62
2019-02-05T03:51:46.058Z,3.59
2019-02-05T03:55:06.687Z,3.49
2019-02-05T03:58:05.804Z,4.08
2019-02-05T04:01:19.219Z,4.30
2019-02-05T04:04:00.261Z,4.33
2019-02-05T04:07:11.134Z,3.79
2019-02-05T04:10:17.036Z,3.77
2019-02-05T04:13:33.247Z,3.93
2019-02-05T04:16:49.090Z,3.46
2019-02-05T04:19:53.710Z,3.49
2019-02-05T04:23:09.861Z,3.32
2019-02-05T04:26:07.919Z,3.35
2019-02-05T04:29:03.862Z,3.33
2019-02-05T04:32:09.866Z,3.48
2019-02-05T04:35:32.530Z,4.19
2019-02-05T04:38:42.199Z,3.63
2019-02-05T04:41:49.495Z,3.70
2019-02-05T04:44:59.865Z,3.00
2019-02-05T04:47:51.871Z,3.57
2019-02-05T04:51:07.098Z,3.56
2019-02-05T04:54:03.759Z,3.63
2019-02-05T04:57:07.132Z,3.14
2019-02-05T05:00:29.710Z,0.21
2019-02-05T05:03:24.001Z,3.30
2019-02-05T05:06:30.124Z,4.03
2019-02-05T05:09:13.939Z,4.58
2019-02-05T05:11:48.504Z,3.47
2019-02-05T05:14:17.648Z,3.58
2019-02-05T05:16:48.746Z,3.67
2019-02-05T05:19:18.524Z,3.29
2019-02-05T05:21:50.734Z,3.33
2019-02-05T05:24:23.045Z,3.08
2019-02-05T05:26:54.355Z,-6.13
2019-02-05T05:29:26.047Z,3.47
2019-02-05T05:31:56.457Z,3.42
2019-02-05T05:34:28.314Z,3.15
2019-02-05T05:36:56.242Z,2.75
2019-02-05T05:39:25.402Z,3.02
2019-02-05T05:41:57.207Z,3.05
2019-02-05T05:44:26.843Z,2.94
2019-02-05T05:47:02.100Z,2.41
2019-02-05T05:49:33.576Z,2.73
2019-02-05T05:52:04.377Z,2.70
2019-02-05T05:54:33.870Z,2.74
2019-02-05T05:57:04.066Z,3.18
2019-02-05T05:59:38.170Z,3.62
2019-02-05T06:02:07.707Z,3.07
2019-02-05T06:04:36.920Z,3.52
2019-02-05T06:07:06.016Z,3.46
2019-02-05T06:09:36.361Z,3.91
2019-02-05T06:12:10.925Z,3.14
2019-02-05T06:14:44.880Z,3.35
2019-02-05T06:17:17.865Z,3.08
2019-02-05T06:19:47.650Z,3.16
2019-02-05T06:22:17.177Z,2.66
2019-02-05T06:24:46.487Z,2.85
2019-02-05T06:27:16.473Z,3.03
2019-02-05T06:29:49.608Z,2.74
2019-02-05T06:32:18.743Z,3.31
2019-02-05T06:34:51.972Z,3.57
2019-02-05T06:37:24.635Z,3.11
2019-02-05T06:39:53.781Z,2.90
2019-02-05T06:42:28.932Z,2.65
2019-02-05T06:44:58.790Z,2.56
2019-02-05T06:47:27.963Z,1.86
2019-02-05T06:49:57.105Z,1.78
2019-02-05T06:52:26.239Z,2.02
2019-02-05T06:54:55.391Z,1.95
2019-02-05T06:57:30.697Z,1.92
2019-02-05T07:00:04.970Z,2.33
2019-02-05T07:02:34.247Z,2.10
2019-02-05T07:05:03.645Z,2.10
2019-02-05T07:07:34.557Z,2.77
2019-02-05T07:10:07.415Z,2.04
2019-02-05T07:12:43.036Z,2.17
2019-02-05T07:15:12.167Z,1.91
2019-02-05T07:17:49.705Z,2.51
2019-02-05T07:20:17.829Z,2.06
2019-02-05T07:22:46.926Z,1.74
2019-02-05T07:25:18.041Z,1.78
2019-02-05T07:27:47.401Z,1.96
2019-02-05T07:30:19.833Z,1.74
2019-02-05T07:32:54.637Z,2.03
2019-02-05T07:35:26.265Z,2.23
2019-02-05T07:37:55.699Z,2.18
2019-02-05T07:40:29.172Z,2.26
2019-02-05T07:43:07.530Z,2.68
2019-02-05T07:45:41.116Z,1.82
2019-02-05T07:48:10.794Z,2.01
2019-02-05T07:50:44.038Z,2.21
2019-02-05T07:53:13.118Z,2.08
2019-02-05T07:55:44.785Z,2.03
2019-02-05T07:58:13.925Z,2.34
2019-02-05T08:00:44.135Z,1.98
2019-02-05T08:03:18.768Z,2.11
2019-02-05T08:05:48.682Z,2.44
2019-02-05T08:08:17.793Z,2.82
2019-02-05T08:10:52.813Z,1.78
2019-02-05T08:13:27.301Z,2.14
2019-02-05T08:15:56.394Z,2.84
2019-02-05T08:18:28.176Z,2.66
2019-02-05T08:21:02.341Z,2.50
2019-02-05T08:23:31.774Z,2.07
2019-02-05T08:26:01.187Z,2.54
2019-02-05T08:28:40.663Z,2.97
2019-02-05T08:31:03.227Z,2.69
2019-02-05T08:33:32.414Z,2.38
2019-02-05T08:36:01.620Z,2.70
2019-02-05T08:38:30.838Z,2.88
2019-02-05T08:40:59.963Z,2.91
2019-02-05T08:43:29.463Z,3.47
2019-02-05T08:46:15.665Z,2.67
2019-02-05T08:48:49.880Z,3.17
2019-02-05T08:51:19.026Z,2.76
2019-02-05T08:53:49.786Z,2.99
2019-02-05T08:56:19.031Z,3.22
2019-02-05T08:58:53.377Z,2.63
2019-02-05T09:01:22.565Z,2.87
2019-02-05T09:03:53.644Z,3.40
2019-02-05T09:06:23.284Z,3.99
2019-02-05T09:08:52.597Z,3.73
2019-02-05T09:11:21.688Z,3.93
2019-02-05T09:13:52.017Z,4.66
2019-02-05T09:16:22.211Z,4.39
2019-02-05T09:18:53.688Z,4.84
2019-02-05T09:21:26.982Z,4.19
2019-02-05T09:23:56.114Z,4.61
2019-02-05T09:26:25.427Z,4.25
2019-02-05T09:29:00.569Z,4.08
2019-02-05T09:31:43.171Z,4.11
2019-02-05T09:34:16.133Z,4.34
2019-02-05T09:36:49.675Z,4.30
2019-02-05T09:39:20.461Z,4.42
2019-02-05T09:41:50.796Z,4.68
2019-02-05T09:44:20.549Z,5.50
2019-02-05T09:46:49.801Z,4.59
2019-02-05T09:49:20.085Z,5.49
2019-02-05T09:51:52.120Z,5.43
2019-02-05T09:54:21.277Z,5.90
2019-02-05T09:56:50.391Z,5.31
2019-02-05T09:59:19.833Z,5.15
2019-02-05T10:01:50.636Z,5.24
2019-02-05T10:04:20.221Z,5.74
2019-02-05T10:06:50.098Z,5.78
2019-02-05T10:09:19.373Z,5.50
2019-02-05T10:11:48.505Z,5.37
2019-02-05T10:14:20.337Z,5.80
2019-02-05T10:16:49.613Z,6.78
2019-02-05T10:19:20.828Z,6.90
2019-02-05T10:21:51.834Z,6.74
2019-02-05T10:24:21.872Z,6.35
2019-02-05T10:26:52.344Z,6.12
2019-02-05T10:29:24.433Z,6.05
2019-02-05T10:31:54.527Z,6.49
2019-02-05T10:34:33.827Z,6.61
2019-02-05T10:36:59.409Z,5.93
2019-02-05T10:39:28.714Z,6.40
2019-02-05T10:42:00.702Z,7.07
2019-02-05T10:44:36.781Z,7.05
2019-02-05T10:47:06.135Z,7.33
2019-02-05T10:49:35.302Z,7.29
2019-02-05T10:52:05.506Z,7.30
2019-02-05T10:54:39.499Z,7.46
2019-02-05T10:57:09.411Z,7.21
2019-02-05T10:59:41.743Z,6.27
2019-02-05T11:02:12.038Z,5.86
2019-02-05T11:04:41.895Z,5.93
2019-02-05T11:07:16.727Z,6.30
2019-02-05T11:09:45.905Z,6.75
2019-02-05T11:12:16.459Z,6.78
2019-02-05T11:14:45.857Z,6.61
2019-02-05T11:17:15.152Z,7.22
2019-02-05T11:19:45.966Z,7.31
2019-02-05T11:22:15.105Z,7.72
2019-02-05T11:24:44.320Z,7.58
2019-02-05T11:27:17.644Z,8.68
2019-02-05T11:29:53.256Z,8.90
2019-02-05T11:32:22.615Z,8.86
2019-02-05T11:34:53.308Z,8.38
2019-02-05T11:37:22.477Z,8.91
2019-02-05T11:39:51.808Z,9.27
2019-02-05T11:42:21.069Z,7.18
2019-02-05T11:45:00.817Z,9.29
2019-02-05T11:47:29.935Z,9.89
2019-02-05T11:50:01.794Z,9.69
2019-02-05T11:52:31.577Z,9.77
2019-02-05T11:55:01.156Z,9.99
2019-02-05T11:57:33.010Z,10.61
2019-02-05T12:00:02.595Z,10.43
2019-02-05T12:02:33.836Z,10.01
2019-02-05T12:05:06.181Z,9.76
2019-02-05T12:07:35.277Z,10.68
2019-02-05T12:10:05.118Z,10.21
2019-02-05T12:12:38.871Z,11.15
2019-02-05T12:15:09.497Z,11.67
2019-02-05T12:17:38.753Z,11.75
2019-02-05T12:20:12.129Z,11.01
2019-02-05T12:22:41.311Z,10.56
2019-02-05T12:25:12.928Z,11.50
2019-02-05T12:27:46.702Z,11.69
2019-02-05T12:30:23.273Z,11.80
2019-02-05T12:32:57.564Z,12.05
2019-02-05T12:35:26.769Z,11.74
2019-02-05T12:37:55.901Z,12.40
2019-02-05T12:40:25.766Z,12.15
2019-02-05T12:42:57.806Z,12.37
2019-02-05T12:45:28.203Z,11.57
2019-02-05T12:47:57.268Z,10.70
2019-02-05T12:50:28.508Z,11.32
2019-02-05T12:52:58.298Z,11.27
2019-02-05T12:55:31.621Z,11.48
2019-02-05T12:58:09.230Z,12.40
2019-02-05T13:00:56.598Z,13.06
2019-02-05T13:03:18.023Z,12.97
2019-02-05T13:05:56.606Z,12.78
2019-02-05T13:08:30.815Z,12.72
2019-02-05T13:11:08.591Z,11.98
2019-02-05T13:13:37.883Z,11.45
2019-02-05T13:16:11.450Z,11.44
2019-02-05T13:18:42.731Z,11.55
2019-02-05T13:21:15.118Z,11.52
2019-02-05T13:23:47.717Z,11.78
2019-02-05T13:26:15.259Z,11.82
2019-02-05T13:28:44.652Z,11.99
2019-02-05T13:31:13.765Z,12.27
2019-02-05T13:33:45.335Z,12.07
2019-02-05T13:36:22.509Z,11.84
2019-02-05T13:38:55.518Z,12.49
2019-02-05T13:41:30.240Z,12.44
2019-02-05T13:44:07.747Z,12.15
2019-02-05T13:46:37.052Z,11.63
2019-02-05T13:49:08.605Z,13.01
2019-02-05T13:51:53.184Z,13.32
2019-02-05T13:54:26.257Z,13.18
2019-02-05T13:56:59.297Z,13.39
2019-02-05T13:59:28.418Z,13.09
2019-02-05T14:01:58.058Z,13.11
2019-02-05T14:04:31.595Z,5.80
2019-02-05T14:07:02.863Z,13.54
2019-02-05T14:09:33.753Z,13.30
2019-02-05T14:12:09.556Z,13.28
2019-02-05T14:14:36.378Z,13.88
2019-02-05T14:17:05.518Z,14.08
2019-02-05T14:19:34.601Z,13.71
2019-02-05T14:22:05.758Z,12.89
2019-02-05T14:24:37.238Z,12.90
2019-02-05T14:27:12.155Z,12.76
2019-02-05T14:29:46.007Z,12.54
2019-02-05T14:32:16.137Z,12.40
2019-02-05T14:34:45.274Z,12.22
2019-02-05T14:37:18.870Z,12.38
2019-02-05T14:39:49.053Z,13.10
2019-02-05T14:42:21.849Z,13.44
2019-02-05T14:44:55.346Z,13.33
2019-02-05T14:47:28.040Z,13.22
2019-02-05T14:49:59.023Z,13.00
2019-02-05T14:55:22.279Z,12.38
2019-02-05T14:57:52.804Z,12.39
2019-02-05T15:00:41.783Z,12.31
2019-02-05T15:03:16.045Z,12.06
2019-02-05T15:05:46.023Z,12.31
2019-02-05T15:08:18.742Z,12.30
2019-02-05T15:11:02.058Z,12.59
2019-02-05T15:13:18.902Z,12.34
2019-02-05T15:15:48.327Z,12.19
2019-02-05T15:18:22.252Z,11.73
2019-02-05T15:20:57.117Z,11.67
2019-02-05T15:23:29.694Z,11.59
2019-02-05T15:25:59.320Z,11.31
2019-02-05T15:28:28.429Z,11.08
2019-02-05T15:30:59.680Z,10.97
2019-02-05T15:33:46.886Z,10.66
2019-02-05T15:36:32.029Z,10.38
2019-02-05T15:39:01.254Z,10.27
2019-02-05T15:41:36.456Z,10.08
2019-02-05T15:44:05.621Z,9.90
2019-02-05T15:46:34.808Z,0.03
2019-02-05T15:49:04.748Z,9.32
2019-02-05T15:51:33.839Z,9.20
2019-02-05T15:54:09.964Z,9.18
2019-02-05T15:56:39.049Z,8.98
2019-02-05T15:59:12.281Z,9.06
2019-02-05T16:01:41.499Z,9.10
2019-02-05T16:04:17.544Z,9.00
2019-02-05T16:06:50.183Z,9.14
2019-02-05T16:09:19.256Z,9.16
2019-02-05T16:11:51.767Z,9.22
2019-02-05T16:14:26.386Z,9.35
2019-02-05T16:16:55.525Z,9.40
2019-02-05T16:19:25.767Z,9.55
2019-02-05T16:21:54.850Z,9.53
2019-02-05T16:24:25.051Z,9.48
2019-02-05T16:26:54.207Z,9.53
2019-02-05T16:29:32.735Z,8.90
2019-02-05T16:32:01.821Z,9.42
2019-02-05T16:34:30.932Z,9.55
2019-02-05T16:37:00.253Z,9.59
2019-02-05T16:39:32.866Z,9.62
2019-02-05T16:42:02.034Z,9.69
2019-02-05T16:44:32.725Z,9.61
2019-02-05T16:47:04.332Z,9.42
2019-02-05T16:49:33.442Z,9.34
2019-02-05T16:52:02.821Z,8.98
2019-02-05T16:54:34.600Z,8.94
2019-02-05T16:57:03.725Z,8.77
2019-02-05T16:59:35.196Z,8.65
2019-02-05T17:02:04.291Z,8.69
2019-02-05T17:04:33.461Z,8.65
2019-02-05T17:07:03.982Z,8.62
2019-02-05T17:09:34.650Z,8.67
2019-02-05T17:12:09.817Z,8.69
2019-02-05T17:14:38.956Z,8.87
2019-02-05T17:17:09.344Z,9.13
2019-02-05T17:19:39.041Z,8.99
2019-02-05T17:22:08.126Z,0.35
2019-02-05T17:24:37.211Z,8.99
2019-02-05T17:27:07.484Z,8.94
2019-02-05T17:29:38.290Z,8.68
2019-02-05T17:32:09.361Z,8.64
2019-02-05T17:34:40.673Z,8.80
2019-02-05T17:37:10.906Z,8.75
2019-02-05T17:39:43.379Z,8.66
2019-02-05T17:42:17.457Z,8.42
2019-02-05T17:44:48.170Z,8.56
2019-02-05T17:47:18.178Z,8.35
2019-02-05T17:49:49.928Z,8.16
2019-02-05T17:52:20.636Z,8.22
2019-02-05T17:54:49.967Z,8.15
2019-02-05T17:57:19.040Z,7.85
2019-02-05T17:59:50.495Z,7.97
2019-02-05T18:02:22.918Z,7.88
2019-02-05T18:04:52.091Z,8.09
2019-02-05T18:07:21.218Z,7.93
2019-02-05T18:09:50.343Z,8.08
2019-02-05T18:12:24.026Z,7.91
2019-02-05T18:14:58.170Z,7.88
2019-02-05T18:17:27.465Z,7.93
2019-02-05T18:19:57.010Z,7.91
2019-02-05T18:22:27.016Z,7.73
2019-02-05T18:24:59.573Z,7.53
2019-02-05T18:27:32.787Z,7.06
2019-02-05T18:30:03.594Z,7.62
2019-02-05T18:32:32.757Z,7.72
2019-02-05T18:35:01.913Z,7.98
2019-02-05T18:37:32.856Z,8.13
2019-02-05T18:40:02.227Z,7.95
2019-02-05T18:42:31.359Z,7.93
2019-02-05T18:45:01.541Z,7.38
2019-02-05T18:47:38.373Z,7.47
2019-02-05T18:50:09.342Z,7.44
2019-02-05T18:52:39.734Z,7.53
2019-02-05T18:55:12.615Z,7.53
2019-02-05T18:57:45.257Z,7.29
2019-02-05T19:00:20.989Z,7.37
2019-02-05T19:02:51.966Z,7.58
2019-02-05T19:05:21.680Z,7.68
2019-02-05T19:07:50.800Z,7.34
2019-02-05T19:10:24.171Z,7.71
2019-02-05T19:12:54.779Z,7.61
2019-02-05T19:15:28.496Z,7.20
2019-02-05T19:17:59.702Z,7.51
2019-02-05T19:20:41.081Z,7.52
2019-02-05T19:23:12.036Z,7.07
2019-02-05T19:26:00.506Z,6.92
2019-02-05T19:28:38.640Z,6.69
2019-02-05T19:31:30.829Z,7.07
2019-02-05T19:34:06.274Z,6.65
2019-02-05T19:36:35.464Z,7.16
2019-02-05T19:39:06.522Z,6.40
2019-02-05T19:41:36.801Z,6.60
2019-02-05T19:44:06.290Z,6.06
2019-02-05T19:47:06.673Z,6.39
2019-02-05T19:49:37.720Z,6.51
2019-02-05T19:52:13.731Z,6.34
2019-02-05T19:54:42.938Z,6.56
2019-02-05T19:57:12.034Z,6.39
2019-02-05T19:59:42.432Z,6.27
2019-02-05T20:02:11.531Z,5.71
2019-02-05T20:04:43.040Z,6.11
2019-02-05T20:07:17.279Z,6.81
2019-02-05T20:09:46.349Z,6.41
2019-02-05T20:12:16.838Z,6.11
2019-02-05T20:14:52.501Z,6.56
2019-02-05T20:17:21.706Z,6.15
2019-02-05T20:19:50.770Z,5.30
2019-02-05T20:22:21.599Z,5.46
2019-02-05T20:24:50.938Z,4.62
2019-02-05T20:27:26.541Z,4.64
2019-02-05T20:30:03.781Z,4.99
2019-02-05T20:32:32.916Z,5.42
2019-02-05T20:35:02.221Z,5.33
2019-02-05T20:37:36.641Z,5.47
2019-02-05T20:40:11.599Z,4.45
2019-02-05T20:42:42.733Z,4.85
2019-02-05T20:45:12.347Z,5.06
2019-02-05T20:47:43.925Z,5.04
2019-02-05T20:50:17.329Z,4.33
2019-02-05T20:52:48.186Z,4.65
2019-02-05T20:55:19.754Z,4.36
2019-02-05T20:57:53.342Z,4.10
2019-02-05T21:00:22.714Z,4.30
2019-02-05T21:02:53.510Z,0.40
2019-02-05T21:05:24.888Z,4.14
2019-02-05T21:07:55.767Z,4.33
2019-02-05T21:10:25.053Z,4.80
2019-02-05T21:12:55.764Z,4.77
2019-02-05T21:15:27.092Z,4.82
2019-02-05T21:17:55.987Z,4.90
2019-02-05T21:20:30.816Z,4.51
2019-02-05T21:22:57.060Z,4.73
2019-02-05T21:25:31.534Z,5.01
2019-02-05T21:28:00.644Z,5.29
2019-02-05T21:30:29.885Z,5.10
2019-02-05T21:33:04.192Z,4.45
2019-02-05T21:35:33.399Z,4.75
2019-02-05T21:38:06.648Z,4.21
2019-02-05T21:40:36.971Z,4.66
2019-02-05T21:43:08.653Z,4.65
2019-02-05T21:45:37.835Z,4.24
2019-02-05T21:48:06.970Z,4.66
2019-02-05T21:50:36.064Z,4.64
2019-02-05T21:53:05.472Z,4.73
2019-02-05T21:55:34.826Z,5.33
2019-02-05T21:58:07.265Z,5.41
2019-02-05T22:00:39.487Z,4.44
2019-02-05T22:03:08.586Z,4.52
2019-02-05T22:05:40.209Z,4.60
2019-02-05T22:08:12.264Z,4.91
2019-02-05T22:10:42.933Z,4.94
2019-02-05T22:13:14.904Z,4.91
2019-02-05T22:15:46.360Z,4.78
2019-02-05T22:18:15.502Z,4.54
2019-02-05T22:20:44.936Z,4.13
2019-02-05T22:23:23.634Z,4.35
2019-02-05T22:25:53.658Z,4.32
2019-02-05T22:28:23.616Z,4.31
2019-02-05T22:30:53.205Z,4.51
2019-02-05T22:33:28.541Z,4.68
2019-02-05T22:35:59.424Z,4.39
2019-02-05T22:38:30.129Z,4.49
2019-02-05T22:41:00.413Z,4.74
2019-02-05T22:43:34.030Z,4.74
2019-02-05T22:46:03.162Z,4.58
2019-02-05T22:48:32.671Z,4.29
2019-02-05T22:51:01.788Z,4.27
2019-02-05T22:53:34.081Z,4.35
2019-02-05T22:56:07.824Z,4.25
2019-02-05T22:58:36.944Z,3.94
2019-02-05T23:01:42.869Z,4.02
2019-02-05T23:04:52.910Z,3.76
2019-02-05T23:07:25.195Z,3.62
2019-02-05T23:10:40.336Z,3.65
2019-02-05T23:13:12.265Z,3.87
2019-02-05T23:15:45.286Z,3.51
2019-02-05T23:18:17.372Z,2.80
2019-02-05T23:20:48.425Z,2.72
2019-02-05T23:23:20.122Z,2.52
2019-02-05T23:25:49.227Z,2.21
2019-02-05T23:28:18.539Z,2.24
2019-02-05T23:30:49.345Z,1.98
2019-02-05T23:33:19.653Z,2.02
2019-02-05T23:35:50.437Z,1.88
2019-02-05T23:38:19.530Z,2.23
2019-02-05T23:40:48.869Z,2.49
2019-02-05T23:43:22.323Z,2.86
2019-02-05T23:46:01.496Z,3.12
2019-02-05T23:48:26.613Z,3.22
2019-02-05T23:51:00.969Z,3.39
2019-02-05T23:53:29.779Z,3.64
2019-02-05T23:55:58.959Z,3.63
2019-02-05T23:58:30.163Z,4.06
